Time;durP1;ratioP1;P1;durP2;ratioP2;P2;SDS_P1;SDS_P2;PMS_P1;PMS_P2;Temp;Humidity;BMP_temperature;BMP_pressure;BME280_temperature;BME280_humidity;BME280_pressure;Samples;Min_cycle;Max_cycle;Signal;HPM_P1;HPM_P2
2023/06/09 00:02:06;;;;;;;;;;;;;;;28.17;29.05;100549.59;5078991;28;1015;-19
2023/06/09 00:04:33;;;;;;;;;;;;;;;28.18;28.94;100545.84;5062315;28;1059;-19
2023/06/09 00:07:00;;;;;;;;;;;;;;;28.02;29.26;100543.44;5058956;28;1082;-19
2023/06/09 00:09:25;;;;;;;;;;;;;;;28.02;29.37;100538.03;5058937;28;1127;-19
2023/06/09 00:11:51;;;;;;;;;;;;;;;28.04;29.30;100541.38;5070706;28;1112;-20
2023/06/09 00:14:16;;;;;;;;;;;;;;;28.14;29.00;100539.19;5066389;28;1062;-19
2023/06/09 00:16:46;;;;;;;;;;;;;;;28.15;29.16;100537.28;5058454;28;1906;-20
2023/06/09 00:19:13;;;;;;;;;;;;;;;28.04;29.20;100530.56;5072333;28;1076;-20
2023/06/09 00:21:38;;;;;;;;;;;;;;;28.13;29.04;100539.38;5058826;28;1099;-20
2023/06/09 00:24:04;;;;;;;;;;;;;;;28.13;29.30;100526.69;5076040;28;1123;-20
2023/06/09 00:26:30;;;;;;;;;;;;;;;28.01;29.32;100522.84;5078612;28;1039;-20
2023/06/09 00:28:56;;;;;;;;;;;;;;;28.14;28.89;100522.13;5065543;28;1127;-21
2023/06/09 00:31:21;;;;;;;;;;;;;;;28.11;29.62;100523.34;5078369;28;1020;-19
2023/06/09 00:33:47;;;;;;;;;;;;;;;27.98;30.45;100513.22;5046766;28;1094;-19
2023/06/09 00:36:14;;;;;;;;;;;;;;;27.89;30.37;100519.81;5067181;28;1151;-19
2023/06/09 00:38:39;;;;;;;;;;;;;;;27.96;30.27;100524.25;5063080;28;1981;-19
2023/06/09 00:41:05;;;;;;;;;;;;;;;27.94;29.87;100523.63;5059668;28;1206;-19
2023/06/09 00:43:30;;;;;;;;;;;;;;;27.92;30.10;100522.97;5065135;28;1153;-20
2023/06/09 00:45:56;;;;;;;;;;;;;;;28.09;29.69;100522.72;5078755;28;1071;-20
2023/06/09 00:48:22;;;;;;;;;;;;;;;28.04;29.82;100523.28;5046815;28;1048;-20
2023/06/09 00:50:47;;;;;;;;;;;;;;;28.05;29.62;100524.13;5078312;28;1110;-20
2023/06/09 00:53:13;;;;;;;;;;;;;;;27.97;29.71;100522.38;5073656;28;1047;-20
2023/06/09 00:55:39;;;;;;;;;;;;;;;28.02;29.95;100529.91;5051468;28;1186;-19
2023/06/09 00:58:05;;;;;;;;;;;;;;;28.03;29.33;100521.59;5077627;28;1972;-20
2023/06/09 01:00:31;;;;;;;;;;;;;;;28.05;29.65;100524.97;5067397;28;1088;-20
2023/06/09 01:03:00;;;;;;;;;;;;;;;28.06;29.42;100512.28;5057755;28;1218;-19
2023/06/09 01:05:28;;;;;;;;;;;;;;;28.06;29.61;100513.09;5078041;28;1094;-19
2023/06/09 01:08:00;;;;;;;;;;;;;;;27.88;29.97;100510.88;5041307;28;1195;-21
2023/06/09 01:10:29;;;;;;;;;;;;;;;27.90;29.54;100519.63;5070980;28;1106;-19
2023/06/09 01:12:59;;;;;;;;;;;;;;;28.08;29.56;100515.59;5039901;28;904;-19
2023/06/09 01:15:28;;;;;;;;;;;;;;;27.94;29.88;100509.25;5071332;28;1139;-20
2023/06/09 01:17:55;;;;;;;;;;;;;;;27.89;29.63;100517.97;5057877;28;1910;-19
2023/06/09 01:20:33;;;;;;;;;;;;;;;28.11;29.23;100502.53;5054486;28;1192;-20
2023/06/09 01:23:06;;;;;;;;;;;;;;;27.97;29.57;100504.31;5077638;28;1046;-19
2023/06/09 01:25:37;;;;;;;;;;;;;;;27.92;29.74;100504.06;5064257;28;1222;-20
2023/06/09 01:28:07;;;;;;;;;;;;;;;27.89;29.58;100509.00;5066533;28;1122;-20
2023/06/09 01:30:33;;;;;;;;;;;;;;;27.88;29.76;100516.28;5023199;28;1109;-19
2023/06/09 01:32:59;;;;;;;;;;;;;;;27.99;29.29;100507.63;5051746;28;1112;-19
2023/06/09 01:35:25;;;;;;;;;;;;;;;28.01;29.26;100512.03;5041291;28;1203;-19
2023/06/09 01:37:51;;;;;;;;;;;;;;;27.90;29.40;100498.00;5042999;28;1902;-19
2023/06/09 01:40:16;;;;;;;;;;;;;;;27.94;29.35;100498.44;5057715;28;1152;-20
2023/06/09 01:42:42;;;;;;;;;;;;;;;27.99;29.29;100502.22;5039118;28;1119;-19
2023/06/09 01:45:07;;;;;;;;;;;;;;;28.03;29.12;100497.28;5070713;28;1147;-19
2023/06/09 01:47:33;;;;;;;;;;;;;;;27.98;29.41;100497.00;5057253;28;977;-20
2023/06/09 01:50:03;;;;;;;;;;;;;;;28.01;28.91;100490.41;5052171;28;1107;-20
2023/06/09 01:52:39;;;;;;;;;;;;;;;27.95;29.23;100489.31;5039317;28;1155;-19
2023/06/09 01:55:13;;;;;;;;;;;;;;;27.92;29.25;100495.09;5042561;28;1168;-19
2023/06/09 01:57:41;;;;;;;;;;;;;;;27.90;29.24;100486.34;5059151;28;1967;-19
2023/06/09 02:00:07;;;;;;;;;;;;;;;28.18;28.64;100485.50;5050135;28;1012;-20
2023/06/09 02:02:42;;;;;;;;;;;;;;;28.00;28.86;100484.16;5072400;28;1085;-20
2023/06/09 02:05:09;;;;;;;;;;;;;;;27.97;29.02;100479.97;5048728;28;1185;-19
2023/06/09 02:07:35;;;;;;;;;;;;;;;28.11;29.04;100475.50;5056857;28;1068;-19
2023/06/09 02:10:01;;;;;;;;;;;;;;;27.88;29.18;100483.84;5032788;28;1173;-20
2023/06/09 02:12:35;;;;;;;;;;;;;;;28.05;28.91;100478.16;5045158;28;1191;-20
2023/06/09 02:15:01;;;;;;;;;;;;;;;28.06;29.01;100477.13;5058735;28;1361;-19
2023/06/09 02:17:27;;;;;;;;;;;;;;;28.15;28.98;100488.63;5061488;28;1897;-20
2023/06/09 02:19:53;;;;;;;;;;;;;;;27.93;28.81;100485.94;5058705;28;1229;-20
2023/06/09 02:22:19;;;;;;;;;;;;;;;27.93;29.06;100488.66;5062842;28;1091;-20
2023/06/09 02:24:50;;;;;;;;;;;;;;;27.97;28.90;100490.78;5076040;28;1043;-19
2023/06/09 02:27:16;;;;;;;;;;;;;;;28.06;28.94;100480.66;5061903;28;1726;-19
2023/06/09 02:29:41;;;;;;;;;;;;;;;27.98;29.10;100480.78;5075182;28;1079;-19
2023/06/09 02:32:07;;;;;;;;;;;;;;;27.99;29.11;100479.78;5071958;28;1066;-19
2023/06/09 02:34:33;;;;;;;;;;;;;;;28.10;29.00;100478.41;5038709;28;1119;-19
2023/06/09 02:36:59;;;;;;;;;;;;;;;27.92;29.30;100478.88;5042876;28;1898;-19
2023/06/09 02:39:25;;;;;;;;;;;;;;;28.00;29.10;100476.03;5047187;28;1431;-19
2023/06/09 02:41:50;;;;;;;;;;;;;;;28.08;28.89;100478.59;5056658;28;1360;-20
2023/06/09 02:44:16;;;;;;;;;;;;;;;27.92;29.07;100492.41;5065184;28;1207;-20
2023/06/09 02:46:43;;;;;;;;;;;;;;;28.03;29.12;100491.03;5056301;28;1028;-19
2023/06/09 02:49:09;;;;;;;;;;;;;;;27.94;29.22;100496.59;5038488;28;1274;-19
2023/06/09 02:51:36;;;;;;;;;;;;;;;28.05;28.71;100502.47;5043307;28;1120;-20
2023/06/09 02:54:03;;;;;;;;;;;;;;;28.06;28.89;100493.34;5045982;28;1376;-19
2023/06/09 02:56:30;;;;;;;;;;;;;;;27.91;29.30;100499.66;5037981;28;1906;-19
2023/06/09 02:58:57;;;;;;;;;;;;;;;27.97;29.18;100498.91;5038380;28;1340;-19
2023/06/09 03:01:24;;;;;;;;;;;;;;;27.93;28.86;100507.56;5050782;28;1385;-19
2023/06/09 03:03:50;;;;;;;;;;;;;;;27.85;28.94;100508.56;5049240;28;1420;-20
2023/06/09 03:06:16;;;;;;;;;;;;;;;27.85;29.09;100498.59;5075630;28;1046;-19
2023/06/09 03:08:42;;;;;;;;;;;;;;;27.95;28.99;100503.66;5057890;28;1186;-20
2023/06/09 03:11:08;;;;;;;;;;;;;;;27.87;29.24;100501.94;5038649;28;1143;-19
2023/06/09 03:13:34;;;;;;;;;;;;;;;27.92;29.13;100509.47;5068383;28;1136;-19
2023/06/09 03:15:59;;;;;;;;;;;;;;;28.02;28.84;100516.38;5051485;28;1427;-18
2023/06/09 03:18:27;;;;;;;;;;;;;;;28.10;29.33;100513.56;5039281;28;1926;-20
2023/06/09 03:20:53;;;;;;;;;;;;;;;28.21;28.86;100517.59;5056860;28;1326;-20
2023/06/09 03:23:20;;;;;;;;;;;;;;;27.50;31.16;100520.03;5057506;28;1808;-19
2023/06/09 03:25:46;;;;;;;;;;;;;;;25.91;32.71;100523.56;5044996;28;1376;-19
2023/06/09 03:28:15;;;;;;;;;;;;;;;25.38;34.33;100522.38;5057792;28;1387;-19
2023/06/09 03:30:41;;;;;;;;;;;;;;;25.12;35.02;100523.50;5050240;28;1175;-19
2023/06/09 03:33:08;;;;;;;;;;;;;;;24.91;35.07;100522.25;5050845;28;1226;-19
2023/06/09 03:35:34;;;;;;;;;;;;;;;24.80;35.74;100509.97;5057100;28;1976;-19
2023/06/09 03:38:00;;;;;;;;;;;;;;;25.12;35.13;100515.44;5048606;28;1906;-19
2023/06/09 03:40:26;;;;;;;;;;;;;;;25.03;34.93;100514.63;5057151;28;1209;-19
2023/06/09 03:42:52;;;;;;;;;;;;;;;24.91;35.66;100518.69;5044408;28;1361;-19
2023/06/09 03:45:17;;;;;;;;;;;;;;;24.98;36.34;100511.63;5037744;28;1032;-19
2023/06/09 03:47:44;;;;;;;;;;;;;;;24.02;37.82;100509.56;5044109;28;1214;-18
2023/06/09 03:50:10;;;;;;;;;;;;;;;24.47;37.44;100510.06;5043636;28;1254;-19
2023/06/09 03:52:36;;;;;;;;;;;;;;;25.36;34.80;100508.22;5074119;28;1274;-17
2023/06/09 03:55:02;;;;;;;;;;;;;;;25.33;35.92;100510.44;5057155;28;1279;-18
2023/06/09 03:57:31;;;;;;;;;;;;;;;26.10;34.71;100516.00;5047625;28;1984;-18
2023/06/09 03:59:57;;;;;;;;;;;;;;;26.20;34.44;100516.59;5057721;28;1246;-18
2023/06/09 04:02:22;;;;;;;;;;;;;;;26.65;32.62;100519.38;5053625;28;1345;-19
2023/06/09 04:04:48;;;;;;;;;;;;;;;26.63;33.12;100523.28;5074932;28;1108;-18
2023/06/09 04:07:14;;;;;;;;;;;;;;;26.87;32.97;100519.47;5057262;28;1096;-18
2023/06/09 04:09:41;;;;;;;;;;;;;;;26.86;33.16;100528.59;5057032;28;1258;-18
2023/06/09 04:12:07;;;;;;;;;;;;;;;26.85;33.32;100523.38;5057197;28;1120;-18
2023/06/09 04:14:33;;;;;;;;;;;;;;;26.92;33.06;100524.31;5045373;28;1198;-18
2023/06/09 04:16:58;;;;;;;;;;;;;;;26.98;32.90;100530.81;5052565;28;1902;-18
2023/06/09 04:19:25;;;;;;;;;;;;;;;27.08;33.40;100534.09;5024709;28;1243;-18
2023/06/09 04:21:51;;;;;;;;;;;;;;;27.18;32.81;100527.56;5041246;28;1273;-18
2023/06/09 04:24:16;;;;;;;;;;;;;;;27.07;33.00;100532.44;5059920;28;1199;-18
2023/06/09 04:26:47;;;;;;;;;;;;;;;27.10;33.79;100540.16;5060497;28;1325;-19
2023/06/09 04:29:15;;;;;;;;;;;;;;;27.08;33.90;100530.53;5061152;28;1330;-18
2023/06/09 04:31:43;;;;;;;;;;;;;;;27.20;33.61;100539.84;5046913;28;1470;-18
2023/06/09 04:34:10;;;;;;;;;;;;;;;27.14;33.40;100537.91;5060963;28;1210;-18
2023/06/09 04:36:40;;;;;;;;;;;;;;;27.44;33.01;100542.41;5043057;28;1905;-18
2023/06/09 04:39:07;;;;;;;;;;;;;;;27.31;33.28;100543.91;5055274;28;1128;-18
2023/06/09 04:41:34;;;;;;;;;;;;;;;27.33;33.25;100554.53;5055578;28;1185;-18
2023/06/09 04:44:06;;;;;;;;;;;;;;;27.39;33.29;100548.41;5040931;28;1460;-18
2023/06/09 04:46:38;;;;;;;;;;;;;;;27.39;33.49;100549.22;5064555;28;1456;-18
2023/06/09 04:49:08;;;;;;;;;;;;;;;27.30;33.64;100554.91;5060278;28;1413;-19
2023/06/09 04:51:47;;;;;;;;;;;;;;;27.39;33.48;100554.59;5052964;28;1217;-19
2023/06/09 04:54:16;;;;;;;;;;;;;;;27.33;33.63;100551.81;5043116;28;1747;-19
2023/06/09 04:56:43;;;;;;;;;;;;;;;27.33;33.58;100558.06;5050699;28;1982;-18
2023/06/09 04:59:11;;;;;;;;;;;;;;;27.40;33.58;100555.47;5053478;28;1553;-18
2023/06/09 05:01:38;;;;;;;;;;;;;;;27.27;34.00;100558.84;5067960;28;1060;-18
2023/06/09 05:04:08;;;;;;;;;;;;;;;27.37;33.67;100558.53;5059914;28;1117;-18
2023/06/09 05:06:36;;;;;;;;;;;;;;;27.46;33.74;100564.69;5067181;28;1166;-18
2023/06/09 05:09:02;;;;;;;;;;;;;;;27.48;33.71;100563.44;5058101;28;1130;-18
2023/06/09 05:11:27;;;;;;;;;;;;;;;27.50;33.95;100566.81;5051056;28;1306;-18
2023/06/09 05:13:53;;;;;;;;;;;;;;;27.55;34.00;100562.69;5077334;28;1051;-18
2023/06/09 05:16:21;;;;;;;;;;;;;;;27.72;33.60;100558.75;5059735;28;1327;-18
2023/06/09 05:18:47;;;;;;;;;;;;;;;27.72;33.44;100552.50;5059468;28;1983;-18
2023/06/09 05:21:12;;;;;;;;;;;;;;;27.04;34.08;100559.81;5051009;28;1347;-18
2023/06/09 05:23:38;;;;;;;;;;;;;;;26.82;34.92;100559.69;5060490;28;1119;-18
2023/06/09 05:26:04;;;;;;;;;;;;;;;26.45;35.74;100554.16;5071067;28;1064;-18
2023/06/09 05:28:29;;;;;;;;;;;;;;;26.63;35.40;100547.56;5056864;28;1139;-18
2023/06/09 05:30:55;;;;;;;;;;;;;;;26.61;35.20;100550.44;5048906;28;1285;-17
2023/06/09 05:33:22;;;;;;;;;;;;;;;26.76;34.96;100552.31;5056818;28;1766;-18
2023/06/09 05:35:48;;;;;;;;;;;;;;;26.52;35.20;100544.31;5039621;28;1159;-18
2023/06/09 05:38:15;;;;;;;;;;;;;;;27.04;35.80;100546.31;5055251;28;1965;-18
2023/06/09 05:40:41;;;;;;;;;;;;;;;27.36;34.42;100546.06;5067728;28;1099;-18
2023/06/09 05:43:07;;;;;;;;;;;;;;;27.49;34.20;100548.09;5056920;28;1171;-18
2023/06/09 05:45:32;;;;;;;;;;;;;;;27.54;33.55;100547.50;5067097;28;1040;-18
2023/06/09 05:47:58;;;;;;;;;;;;;;;27.45;33.94;100544.06;5063753;28;1214;-18
2023/06/09 05:50:23;;;;;;;;;;;;;;;27.53;33.59;100551.25;5071586;28;1043;-18
2023/06/09 05:52:49;;;;;;;;;;;;;;;27.48;33.50;100552.66;5076589;28;1086;-18
2023/06/09 05:55:17;;;;;;;;;;;;;;;27.43;33.55;100554.22;5077014;28;1186;-18
2023/06/09 05:57:44;;;;;;;;;;;;;;;27.58;33.37;100549.63;5074208;28;1961;-18
2023/06/09 06:00:10;;;;;;;;;;;;;;;27.42;33.67;100547.16;5066287;28;1161;-18
2023/06/09 06:02:38;;;;;;;;;;;;;;;27.82;33.39;100546.78;5076462;28;1116;-19
2023/06/09 06:05:05;;;;;;;;;;;;;;;27.83;33.19;100548.44;5077164;28;1079;-18
2023/06/09 06:07:31;;;;;;;;;;;;;;;27.81;33.15;100545.94;5060535;28;1132;-17
2023/06/09 06:09:56;;;;;;;;;;;;;;;27.61;33.41;100548.44;5057029;28;1147;-18
2023/06/09 06:12:22;;;;;;;;;;;;;;;27.58;34.11;100549.63;5070254;28;1325;-18
2023/06/09 06:14:47;;;;;;;;;;;;;;;27.79;33.75;100552.59;5062334;28;1136;-18
2023/06/09 06:17:13;;;;;;;;;;;;;;;27.55;34.48;100555.41;5076548;28;1902;-18
2023/06/09 06:19:38;;;;;;;;;;;;;;;27.53;34.43;100559.34;5076562;28;1047;-18
2023/06/09 06:22:04;;;;;;;;;;;;;;;27.58;34.19;100556.91;5074682;28;1086;-18
2023/06/09 06:24:30;;;;;;;;;;;;;;;27.26;33.29;100552.59;5064939;28;1104;-18
2023/06/09 06:26:55;;;;;;;;;;;;;;;27.16;33.08;100549.34;5067135;28;1110;-19
2023/06/09 06:29:21;;;;;;;;;;;;;;;27.42;33.48;100542.59;5068347;28;964;-18
2023/06/09 06:31:48;;;;;;;;;;;;;;;27.50;33.87;100541.66;5058186;28;1257;-18
2023/06/09 06:34:14;;;;;;;;;;;;;;;27.44;34.16;100539.72;5076255;28;1059;-18
2023/06/09 06:36:39;;;;;;;;;;;;;;;27.69;33.59;100534.81;5061014;28;1894;-18
2023/06/09 06:39:06;;;;;;;;;;;;;;;27.69;33.66;100533.97;5064009;28;1075;-18
2023/06/09 06:41:31;;;;;;;;;;;;;;;27.73;33.29;100521.75;5074337;28;1074;-18
2023/06/09 06:43:57;;;;;;;;;;;;;;;27.77;33.28;100523.03;5056398;28;1044;-19
2023/06/09 06:46:22;;;;;;;;;;;;;;;27.81;33.35;100531.59;5064218;28;1151;-18
2023/06/09 06:48:48;;;;;;;;;;;;;;;27.91;33.04;100534.81;5056975;28;1215;-18
2023/06/09 06:51:14;;;;;;;;;;;;;;;27.91;33.26;100534.00;5063159;28;1039;-19
2023/06/09 06:53:39;;;;;;;;;;;;;;;27.90;33.34;100530.44;5043439;28;1075;-18
2023/06/09 06:56:05;;;;;;;;;;;;;;;27.86;33.41;100531.88;5055857;28;1017;-18
2023/06/09 06:58:32;;;;;;;;;;;;;;;27.84;33.55;100529.34;5057924;28;1901;-19
2023/06/09 07:00:58;;;;;;;;;;;;;;;27.83;33.57;100529.53;5067929;28;1064;-18
2023/06/09 07:03:26;;;;;;;;;;;;;;;27.90;34.07;100537.69;5063203;28;1116;-18
2023/06/09 07:05:52;;;;;;;;;;;;;;;27.95;34.01;100540.66;5075688;28;1310;-18
2023/06/09 07:08:18;;;;;;;;;;;;;;;27.96;33.55;100531.53;5055799;28;1076;-18
2023/06/09 07:10:43;;;;;;;;;;;;;;;27.97;33.46;100519.69;5069474;28;1127;-18
2023/06/09 07:13:09;;;;;;;;;;;;;;;27.94;33.83;100520.09;5062891;28;1119;-18
2023/06/09 07:15:36;;;;;;;;;;;;;;;28.09;33.57;100520.81;5075918;28;1117;-18
2023/06/09 07:18:03;;;;;;;;;;;;;;;28.03;33.56;100526.19;5056006;28;1971;-18
2023/06/09 07:20:28;;;;;;;;;;;;;;;28.17;33.42;100525.28;5073931;28;1216;-18
2023/06/09 07:22:54;;;;;;;;;;;;;;;28.07;33.36;100520.19;5075954;28;1030;-18
2023/06/09 07:25:20;;;;;;;;;;;;;;;27.87;33.92;100520.00;5074460;28;1171;-18
2023/06/09 07:27:45;;;;;;;;;;;;;;;27.89;33.82;100531.47;5068764;28;1139;-18
2023/06/09 07:30:11;;;;;;;;;;;;;;;28.11;33.00;100526.88;5074018;28;1146;-18
2023/06/09 07:32:39;;;;;;;;;;;;;;;27.97;33.55;100512.41;5074785;28;1234;-18
2023/06/09 07:35:04;;;;;;;;;;;;;;;28.30;32.94;100510.16;5062032;28;1121;-19
2023/06/09 07:37:31;;;;;;;;;;;;;;;28.13;33.00;100510.44;5075412;28;1910;-18
2023/06/09 07:39:57;;;;;;;;;;;;;;;28.05;33.49;100506.03;5069995;28;1095;-19
2023/06/09 07:42:22;;;;;;;;;;;;;;;27.98;33.39;100505.13;5069573;28;1202;-18
2023/06/09 07:44:48;;;;;;;;;;;;;;;28.01;33.39;100495.81;5055844;28;1102;-18
2023/06/09 07:47:13;;;;;;;;;;;;;;;28.14;32.48;100490.50;5069255;28;1103;-18
2023/06/09 07:49:39;;;;;;;;;;;;;;;28.21;34.12;100499.50;5067542;28;1138;-19
2023/06/09 07:52:05;;;;;;;;;;;;;;;28.18;33.88;100504.44;5070163;28;1132;-18
2023/06/09 07:54:31;;;;;;;;;;;;;;;28.14;33.70;100504.03;5067005;28;1179;-18
2023/06/09 07:56:57;;;;;;;;;;;;;;;28.10;33.59;100506.28;5041321;28;1902;-18
2023/06/09 07:59:23;;;;;;;;;;;;;;;28.19;33.66;100493.47;5068681;28;1115;-18
2023/06/09 08:01:48;;;;;;;;;;;;;;;28.04;33.94;100506.22;5079143;28;1242;-19
2023/06/09 08:04:15;;;;;;;;;;;;;;;28.07;33.77;100506.69;5060783;28;1454;-18
2023/06/09 08:06:41;;;;;;;;;;;;;;;28.26;33.19;100504.31;5079365;28;1305;-18
2023/06/09 08:09:07;;;;;;;;;;;;;;;28.26;33.52;100500.78;5079378;28;1202;-18
2023/06/09 08:11:32;;;;;;;;;;;;;;;28.18;33.85;100497.19;5065738;28;1055;-18
2023/06/09 08:13:58;;;;;;;;;;;;;;;28.46;33.93;100496.34;5069064;28;1075;-17
2023/06/09 08:16:24;;;;;;;;;;;;;;;28.54;33.09;100506.22;5070130;28;1079;-18
2023/06/09 08:18:49;;;;;;;;;;;;;;;28.32;33.24;100503.53;5063985;28;1961;-18
2023/06/09 08:21:16;;;;;;;;;;;;;;;28.26;33.25;100507.00;5067360;28;1068;-17
2023/06/09 08:23:42;;;;;;;;;;;;;;;28.46;32.97;100515.28;5048089;28;1130;-17
2023/06/09 08:26:08;;;;;;;;;;;;;;;28.21;33.28;100510.31;5078848;28;1110;-17
2023/06/09 08:28:33;;;;;;;;;;;;;;;28.30;32.90;100513.72;5075505;28;1054;-18
2023/06/09 08:30:59;;;;;;;;;;;;;;;28.08;33.37;100510.19;5071284;28;1066;-17
2023/06/09 08:33:26;;;;;;;;;;;;;;;28.23;32.88;100505.53;5058392;28;1107;-18
2023/06/09 08:35:51;;;;;;;;;;;;;;;28.13;32.67;100507.75;5049075;28;1024;-17
2023/06/09 08:38:17;;;;;;;;;;;;;;;28.18;32.54;100499.88;5063653;28;1914;-17
2023/06/09 08:40:42;;;;;;;;;;;;;;;28.28;32.41;100493.31;5058265;28;921;-18
2023/06/09 08:43:08;;;;;;;;;;;;;;;28.23;32.37;100492.03;5071967;28;1059;-18
2023/06/09 08:45:34;;;;;;;;;;;;;;;28.53;32.14;100495.59;5066236;28;1075;-18
2023/06/09 08:48:00;;;;;;;;;;;;;;;28.20;32.54;100491.56;5063589;28;1024;-19
2023/06/09 08:50:28;;;;;;;;;;;;;;;28.07;32.93;100485.03;5058680;28;1023;-18
2023/06/09 08:52:53;;;;;;;;;;;;;;;28.28;32.30;100485.19;5058394;28;1102;-17
2023/06/09 08:55:19;;;;;;;;;;;;;;;29.05;29.56;100479.81;5065803;28;1190;-16
2023/06/09 08:57:44;;;;;;;;;;;;;;;28.59;30.67;100481.25;5058971;28;1909;-17
2023/06/09 09:00:11;;;;;;;;;;;;;;;29.04;29.95;100488.16;5063876;28;1095;-17
2023/06/09 09:02:37;;;;;;;;;;;;;;;28.90;29.75;100487.22;5057622;28;1229;-18
2023/06/09 09:05:02;;;;;;;;;;;;;;;29.15;29.41;100484.84;5074043;28;972;-17
2023/06/09 09:07:28;;;;;;;;;;;;;;;29.02;29.99;100482.94;5078363;28;1067;-17
2023/06/09 09:09:54;;;;;;;;;;;;;;;29.04;29.38;100472.75;5063629;28;1450;-17
2023/06/09 09:12:19;;;;;;;;;;;;;;;28.59;30.26;100475.84;5063527;28;996;-17
2023/06/09 09:14:46;;;;;;;;;;;;;;;28.23;31.34;100470.38;5039554;28;1146;-17
2023/06/09 09:17:12;;;;;;;;;;;;;;;28.81;30.37;100473.84;5077113;28;1981;-17
2023/06/09 09:19:45;;;;;;;;;;;;;;;28.80;30.48;100468.63;5069590;28;1060;-17
2023/06/09 09:22:10;;;;;;;;;;;;;;;29.15;29.60;100476.72;5060508;28;1167;-19
2023/06/09 09:24:36;;;;;;;;;;;;;;;28.76;30.80;100470.09;5076835;28;1015;-18
2023/06/09 09:27:05;;;;;;;;;;;;;;;28.75;31.17;100465.69;5051897;28;1325;-18
2023/06/09 09:29:32;;;;;;;;;;;;;;;28.64;31.33;100476.09;5044735;28;896;-18
2023/06/09 09:31:58;;;;;;;;;;;;;;;28.94;31.10;100458.72;5046569;28;1260;-19
2023/06/09 09:34:27;;;;;;;;;;;;;;;29.72;29.22;100458.50;5063727;28;1088;-18
2023/06/09 09:36:56;;;;;;;;;;;;;;;29.49;30.14;100454.28;5039660;28;1959;-18
2023/06/09 09:39:22;;;;;;;;;;;;;;;29.41;29.85;100452.63;5058440;28;1182;-18
2023/06/09 09:42:10;;;;;;;;;;;;;;;29.35;29.27;100451.56;5077002;28;886;-18
2023/06/09 09:44:36;;;;;;;;;;;;;;;29.07;30.62;100441.69;5073318;28;1047;-18
2023/06/09 09:47:03;;;;;;;;;;;;;;;29.19;30.45;100442.78;5057352;28;1139;-18
2023/06/09 09:49:29;;;;;;;;;;;;;;;29.55;28.51;100442.59;5070451;28;1107;-18
2023/06/09 09:51:56;;;;;;;;;;;;;;;28.99;29.75;100444.59;5068999;28;1403;-18
2023/06/09 09:54:23;;;;;;;;;;;;;;;29.60;28.44;100442.84;5076640;28;1126;-18
2023/06/09 09:56:49;;;;;;;;;;;;;;;29.38;29.20;100437.59;5064816;28;1973;-18
2023/06/09 09:59:15;;;;;;;;;;;;;;;29.20;29.95;100436.31;5062540;28;1139;-18
2023/06/09 10:01:41;;;;;;;;;;;;;;;29.49;29.17;100424.47;5077471;28;1102;-18
2023/06/09 10:04:07;;;;;;;;;;;;;;;29.72;28.37;100429.53;5063621;28;1173;-17
2023/06/09 10:06:32;;;;;;;;;;;;;;;29.68;29.00;100420.97;5076930;28;1054;-17
2023/06/09 10:08:58;;;;;;;;;;;;;;;29.39;29.19;100417.59;5058552;28;1155;-18
2023/06/09 10:11:26;;;;;;;;;;;;;;;29.50;28.99;100413.44;5056809;28;1067;-18
2023/06/09 10:13:51;;;;;;;;;;;;;;;29.07;29.85;100407.34;5051578;28;1032;-17
2023/06/09 10:16:17;;;;;;;;;;;;;;;28.88;30.04;100413.50;5040759;28;1570;-18
2023/06/09 10:18:42;;;;;;;;;;;;;;;29.16;29.82;100407.16;5063187;28;1914;-18
2023/06/09 10:21:09;;;;;;;;;;;;;;;29.76;28.71;100405.56;5069053;28;1210;-17
2023/06/09 10:23:34;;;;;;;;;;;;;;;29.39;29.40;100406.75;5069968;28;1052;-17
2023/06/09 10:26:01;;;;;;;;;;;;;;;29.07;30.08;100403.78;5056795;28;1095;-17
2023/06/09 10:28:27;;;;;;;;;;;;;;;29.43;29.12;100399.03;5049515;28;1032;-18
2023/06/09 10:30:52;;;;;;;;;;;;;;;29.36;29.08;100403.63;5069697;28;1096;-18
2023/06/09 10:33:28;;;;;;;;;;;;;;;29.30;29.66;100399.84;5052192;28;1100;-17
2023/06/09 10:35:58;;;;;;;;;;;;;;;29.35;29.81;100400.06;5046302;28;1065;-17
2023/06/09 10:38:25;;;;;;;;;;;;;;;29.42;29.65;100394.66;5061581;28;1979;-17
2023/06/09 10:40:57;;;;;;;;;;;;;;;29.67;29.23;100391.38;5064821;28;1036;-17
2023/06/09 10:43:52;;;;;;;;;;;;;;;29.34;29.71;100384.88;5056010;28;1156;-16
2023/06/09 10:46:18;;;;;;;;;;;;;;;29.70;29.24;100386.38;4968701;28;1189;-18
2023/06/09 10:48:45;;;;;;;;;;;;;;;29.66;29.46;100382.38;5056627;28;1163;-19
2023/06/09 10:51:29;;;;;;;;;;;;;;;29.70;28.81;100370.09;5076523;28;1231;-18
2023/06/09 10:54:21;;;;;;;;;;;;;;;30.02;28.26;100374.84;5069793;28;962;-18
2023/06/09 10:56:52;;;;;;;;;;;;;;;30.30;27.84;100379.19;5055170;28;1905;-18
2023/06/09 10:59:24;;;;;;;;;;;;;;;30.17;27.53;100377.31;5066055;28;1209;-18
2023/06/09 11:02:05;;;;;;;;;;;;;;;30.14;27.40;100380.47;5056014;28;1091;-18
2023/06/09 11:05:00;;;;;;;;;;;;;;;30.42;26.84;100383.94;5057518;28;1186;-18
2023/06/09 11:07:29;;;;;;;;;;;;;;;30.08;27.77;100378.56;5075471;28;1417;-18
2023/06/09 11:09:57;;;;;;;;;;;;;;;30.02;27.61;100376.72;5056087;28;1129;-19
2023/06/09 11:12:42;;;;;;;;;;;;;;;30.13;27.83;100380.66;5055877;28;1044;-19
2023/06/09 11:15:09;;;;;;;;;;;;;;;30.13;27.74;100384.19;5069135;28;1138;-17
2023/06/09 11:17:47;;;;;;;;;;;;;;;30.44;27.04;100387.28;5064893;28;1973;-17
2023/06/09 11:20:14;;;;;;;;;;;;;;;30.20;27.78;100367.94;5075925;28;1032;-17
2023/06/09 11:22:49;;;;;;;;;;;;;;;29.75;28.44;100366.75;5075940;28;1037;-17
2023/06/09 11:25:15;;;;;;;;;;;;;;;29.22;29.41;100376.53;5063418;28;1120;-18
2023/06/09 11:27:41;;;;;;;;;;;;;;;29.32;29.59;100371.53;5075129;28;1372;-16
2023/06/09 11:30:18;;;;;;;;;;;;;;;29.41;29.40;100374.84;5059127;28;945;-18
2023/06/09 11:32:47;;;;;;;;;;;;;;;29.21;29.82;100372.16;5064738;28;1363;-18
2023/06/09 11:35:30;;;;;;;;;;;;;;;29.21;29.97;100375.69;5071001;28;1279;-18
2023/06/09 11:37:57;;;;;;;;;;;;;;;29.34;29.13;100374.84;5059972;28;1971;-19
2023/06/09 11:40:23;;;;;;;;;;;;;;;29.69;29.76;100382.00;5059760;28;1218;-19
2023/06/09 11:42:49;;;;;;;;;;;;;;;29.84;29.71;100370.09;5077674;28;900;-18
2023/06/09 11:45:15;;;;;;;;;;;;;;;29.93;30.18;100373.38;5079415;28;1070;-18
2023/06/09 11:47:41;;;;;;;;;;;;;;;30.12;30.73;100384.41;5071331;28;1210;-18
2023/06/09 11:50:10;;;;;;;;;;;;;;;30.03;31.09;100375.69;5073923;28;1060;-18
2023/06/09 11:52:35;;;;;;;;;;;;;;;30.01;30.67;100377.78;5079626;28;1309;-17
2023/06/09 11:55:02;;;;;;;;;;;;;;;30.14;30.85;100375.03;5078737;28;1246;-17
2023/06/09 11:57:28;;;;;;;;;;;;;;;29.64;32.29;100370.09;5039351;28;1902;-17
2023/06/09 11:59:53;;;;;;;;;;;;;;;29.35;33.19;100367.56;5038236;28;1251;-18
2023/06/09 12:02:20;;;;;;;;;;;;;;;29.37;31.63;100368.19;5039924;28;1239;-18
2023/06/09 12:04:47;;;;;;;;;;;;;;;29.65;31.53;100377.19;5039387;28;1083;-17
2023/06/09 12:07:16;;;;;;;;;;;;;;;29.75;32.36;100371.31;5038789;28;1021;-18
2023/06/09 12:09:42;;;;;;;;;;;;;;;29.07;34.44;100371.28;5039479;28;1111;-18
2023/06/09 12:12:08;;;;;;;;;;;;;;;29.24;34.08;100369.03;5039568;28;1251;-16
2023/06/09 12:14:33;;;;;;;;;;;;;;;29.54;33.70;100363.22;5039298;28;1055;-16
2023/06/09 12:16:59;;;;;;;;;;;;;;;29.78;33.33;100370.94;5039079;28;1906;-17
2023/06/09 12:19:25;;;;;;;;;;;;;;;29.29;35.53;100369.25;5039039;28;1194;-18
2023/06/09 12:21:51;;;;;;;;;;;;;;;29.35;35.30;100367.56;5035963;28;1352;-19
2023/06/09 12:24:16;;;;;;;;;;;;;;;29.62;35.78;100361.34;5038604;28;1123;-18
2023/06/09 12:26:44;;;;;;;;;;;;;;;29.81;33.64;100355.06;5038626;28;1083;-18
2023/06/09 12:29:09;;;;;;;;;;;;;;;29.51;34.04;100347.34;5038549;28;1183;-18
2023/06/09 12:31:42;;;;;;;;;;;;;;;29.36;35.96;100354.88;5038811;28;1163;-19
2023/06/09 12:34:08;;;;;;;;;;;;;;;28.97;36.69;100358.16;5038941;28;1118;-19
2023/06/09 12:36:39;;;;;;;;;;;;;;;28.59;37.33;100343.25;5037993;28;1020;-19
2023/06/09 12:39:15;;;;;;;;;;;;;;;27.96;39.06;100356.63;5038599;28;1966;-19
2023/06/09 12:41:41;;;;;;;;;;;;;;;27.66;40.50;100364.09;5038482;28;1067;-18
2023/06/09 12:44:07;;;;;;;;;;;;;;;27.17;40.99;100364.72;5038636;28;1112;-18
2023/06/09 12:46:32;;;;;;;;;;;;;;;28.19;39.23;100363.66;5037497;28;1167;-16
2023/06/09 12:49:02;;;;;;;;;;;;;;;28.54;38.00;100359.25;5038702;28;1043;-16